This is the latest recevied weather packets stored in our database for station/object KC1DMA. If no packets are shown the sender has not sent any weather packets the latest 10 day(s).
| Time | Temp. | Humidity | Pressure | Rain* | Wind** | Luminosity | Snow |
|---|---|---|---|---|---|---|---|
| 1777993091 | 20° C | 61% | 1013.2 hPa | - | - | 733 W/m² | - |
| 1777992790 | 20° C | 61% | 1012.8 hPa | - | - | 722 W/m² | - |
| 1777992487 | 20° C | 61% | 1012.7 hPa | - | - | 713 W/m² | - |
| 1777992185 | 20° C | 60% | 1012.6 hPa | - | - | 707 W/m² | - |
| 1777991881 | 20° C | 62% | 1012.6 hPa | - | - | 693 W/m² | - |
| 1777991579 | 19.44° C | 63% | 1012.6 hPa | - | - | 680 W/m² | - |
| 1777991276 | 18.89° C | 66% | 1012.6 hPa | - | - | 669 W/m² | - |
| 1777990973 | 18.89° C | 65% | 1012.7 hPa | - | - | 659 W/m² | - |
| 1777990671 | 18.89° C | 65% | 1012.6 hPa | - | - | 642 W/m² | - |
| 1777990368 | 19.44° C | 65% | 1012.7 hPa | - | - | 636 W/m² | - |
| 1777990064 | 18.89° C | 66% | 1012.7 hPa | - | - | 623 W/m² | - |
| 1777989761 | 17.78° C | 70% | 1012.6 hPa | - | - | 607 W/m² | - |
| 1777989457 | 17.78° C | 70% | 1012.7 hPa | - | - | 516 W/m² | - |
| 1777989154 | 17.22° C | 71% | 1012.5 hPa | - | - | 420 W/m² | - |
| 1777988850 | 17.22° C | 71% | 1012.5 hPa | - | - | 308 W/m² | - |
| 1777988547 | 17.78° C | 68% | 1012.5 hPa | - | - | 337 W/m² | - |
| 1777988244 | 17.22° C | 72% | 1012.4 hPa | - | - | 680 W/m² | - |
| 1777987940 | 16.11° C | 74% | 1012.3 hPa | - | - | 258 W/m² | - |
| 1777987636 | 14.44° C | 79% | 1012.3 hPa | - | - | 213 W/m² | - |
| 1777987334 | 14.44° C | 79% | 1012.3 hPa | - | - | 213 W/m² | - |
| 1777987031 | 14.44° C | 79% | 1012.3 hPa | - | - | 213 W/m² | - |
| 1777986728 | 14.44° C | 79% | 1012.4 hPa | - | - | 213 W/m² | - |
| 1777986426 | 14.44° C | 79% | 1012.5 hPa | - | - | 213 W/m² | - |
| 1777986124 | 14.44° C | 79% | 1012.7 hPa | - | - | 213 W/m² | - |
| 1777985820 | 14.44° C | 79% | 1012.6 hPa | - | - | 213 W/m² | - |
* Rain since midnight (hover to see other rain measurements)
** Current wind speed in m/s (hover to see current wind gust speed)